Time;durP1;ratioP1;P1;durP2;ratioP2;P2;SDS_P1;SDS_P2;PMS_P1;PMS_P2;Temp;Humidity;BMP_temperature;BMP_pressure;BME280_temperature;BME280_humidity;BME280_pressure;Samples;Min_cycle;Max_cycle;Signal;HPM_P1;HPM_P2
2023/02/19 00:01:20;;;;;;;37.63;15.35;;;8.50;99.90;;;;;;5089374;28;20047;-79
2023/02/19 00:03:51;;;;;;;32.00;14.98;;;8.50;99.90;;;;;;5072364;28;20040;-79
2023/02/19 00:06:19;;;;;;;34.83;16.00;;;8.40;99.90;;;;;;5071985;28;20123;-79
2023/02/19 00:08:46;;;;;;;30.15;14.73;;;8.50;99.90;;;;;;5061435;28;20036;-79
2023/02/19 00:11:15;;;;;;;33.38;15.48;;;8.50;99.90;;;;;;5107881;28;20094;-79
2023/02/19 00:13:44;;;;;;;30.45;15.73;;;8.50;99.90;;;;;;5091164;28;20488;-79
2023/02/19 00:16:14;;;;;;;33.92;14.38;;;8.50;99.90;;;;;;5092161;28;20036;-79
2023/02/19 00:18:41;;;;;;;35.88;14.45;;;8.50;99.90;;;;;;5086836;28;20531;-79
2023/02/19 00:21:08;;;;;;;26.58;12.90;;;8.50;99.90;;;;;;5064196;28;20040;-79
2023/02/19 00:23:35;;;;;;;30.13;13.43;;;8.50;99.90;;;;;;5091495;28;20051;-79
2023/02/19 00:26:10;;;;;;;27.60;14.32;;;8.50;99.90;;;;;;5109024;28;20504;-79
2023/02/19 00:28:37;;;;;;;27.10;12.00;;;8.50;99.90;;;;;;5106573;28;20044;-79
2023/02/19 00:31:15;;;;;;;33.10;12.70;;;8.50;99.90;;;;;;5090640;28;20040;-79
2023/02/19 00:33:42;;;;;;;26.67;11.85;;;8.50;99.90;;;;;;5075731;28;20067;-79
2023/02/19 00:36:09;;;;;;;23.95;11.90;;;8.40;99.90;;;;;;5071664;28;20707;-79
2023/02/19 00:38:37;;;;;;;27.17;11.70;;;8.50;99.90;;;;;;5075733;28;20051;-79
2023/02/19 00:41:19;;;;;;;26.60;11.43;;;8.50;99.90;;;;;;5059185;28;20117;-78
2023/02/19 00:43:46;;;;;;;26.80;11.35;;;8.50;99.90;;;;;;5077438;28;20052;-78
2023/02/19 00:46:13;;;;;;;25.35;10.73;;;8.40;99.90;;;;;;5075437;28;20496;-78
2023/02/19 00:48:40;;;;;;;24.98;10.15;;;8.40;99.90;;;;;;5098374;28;20036;-79
2023/02/19 00:51:07;;;;;;;22.60;9.93;;;8.40;99.90;;;;;;5083016;28;20041;-79
2023/02/19 00:53:33;;;;;;;25.20;10.50;;;8.40;99.90;;;;;;5059097;28;20048;-79
2023/02/19 00:56:00;;;;;;;24.13;10.20;;;8.40;99.90;;;;;;5058655;28;20082;-79
2023/02/19 00:58:27;;;;;;;24.08;9.88;;;8.40;99.90;;;;;;5077821;28;20402;-78
2023/02/19 01:00:53;;;;;;;22.05;9.98;;;8.40;99.90;;;;;;5094442;28;20134;-78
2023/02/19 01:03:21;;;;;;;21.45;9.98;;;8.40;99.90;;;;;;5077473;28;20047;-78
2023/02/19 01:05:49;;;;;;;20.75;9.70;;;8.40;99.90;;;;;;5078701;28;20044;-79
2023/02/19 01:08:16;;;;;;;24.80;10.40;;;8.40;99.90;;;;;;5084609;28;20040;-78
2023/02/19 01:10:43;;;;;;;23.92;9.75;;;8.40;99.90;;;;;;5068992;28;20047;-79
2023/02/19 01:13:10;;;;;;;27.55;10.18;;;8.40;99.90;;;;;;5076110;28;20194;-78
2023/02/19 01:15:37;;;;;;;27.63;10.10;;;8.40;99.90;;;;;;5075094;28;20446;-78
2023/02/19 01:18:04;;;;;;;26.05;9.90;;;8.40;99.90;;;;;;5074418;28;20135;-79
2023/02/19 01:20:31;;;;;;;12.63;6.90;;;8.40;99.90;;;;;;5084002;28;20123;-78
2023/02/19 01:22:57;;;;;;;11.77;5.88;;;8.30;99.90;;;;;;5085529;28;20036;-79
2023/02/19 01:25:24;;;;;;;9.23;4.78;;;8.20;99.90;;;;;;5071091;28;20511;-79
2023/02/19 01:27:51;;;;;;;9.90;5.05;;;8.00;99.90;;;;;;5094760;28;20485;-79
2023/02/19 01:30:18;;;;;;;7.65;3.95;;;7.80;99.90;;;;;;5074491;28;20097;-79
2023/02/19 01:32:44;;;;;;;10.48;4.10;;;7.60;99.90;;;;;;5057671;28;20032;-79
2023/02/19 01:35:11;;;;;;;4.32;2.72;;;7.40;99.90;;;;;;5094237;28;20040;-79
2023/02/19 01:37:38;;;;;;;7.00;2.80;;;7.30;99.90;;;;;;5094547;28;20044;-79
2023/02/19 01:40:06;;;;;;;4.80;2.67;;;7.10;99.90;;;;;;5075430;28;20040;-79
2023/02/19 01:42:32;;;;;;;4.82;2.92;;;7.00;99.90;;;;;;5074451;28;20089;-79
2023/02/19 01:45:26;;;;;;;4.30;2.05;;;6.90;99.90;;;;;;5077718;28;20036;-79
2023/02/19 01:48:25;;;;;;;3.90;2.20;;;6.80;99.90;;;;;;5093992;28;20419;-79
2023/02/19 01:51:15;;;;;;;4.07;2.13;;;6.80;99.90;;;;;;5058369;28;20520;-79
2023/02/19 01:53:45;;;;;;;4.25;2.08;;;6.80;99.90;;;;;;5078740;28;20522;-79
2023/02/19 01:56:14;;;;;;;3.63;1.85;;;6.80;99.90;;;;;;5101456;28;20046;-79
2023/02/19 01:58:41;;;;;;;4.00;1.95;;;6.70;99.90;;;;;;5058221;28;20040;-79
2023/02/19 02:01:08;;;;;;;3.50;2.13;;;6.60;99.90;;;;;;5059302;28;20040;-79
2023/02/19 02:03:37;;;;;;;3.28;1.92;;;6.60;99.90;;;;;;5073689;28;20051;-79
2023/02/19 02:06:10;;;;;;;4.78;2.15;;;6.50;99.90;;;;;;5073591;28;20048;-79
2023/02/19 02:11:24;;;;;;;3.92;1.98;;;6.40;99.90;;;;;;5076505;28;20451;-79
2023/02/19 02:13:50;;;;;;;4.05;2.10;;;6.40;99.90;;;;;;5105816;28;20047;-79
2023/02/19 02:16:28;;;;;;;3.50;1.95;;;6.40;99.90;;;;;;5077628;28;20032;-79
2023/02/19 02:19:01;;;;;;;3.60;1.80;;;6.30;99.90;;;;;;5103696;28;20044;-79
2023/02/19 02:21:42;;;;;;;4.25;2.00;;;6.30;99.90;;;;;;5073662;28;20041;-79
2023/02/19 02:24:54;;;;;;;3.17;1.83;;;6.20;99.90;;;;;;5074844;28;20401;-79
2023/02/19 02:27:37;;;;;;;4.25;2.47;;;6.20;99.90;;;;;;5073916;28;20137;-78
2023/02/19 02:30:28;;;;;;;4.13;2.40;;;6.10;99.90;;;;;;5082000;28;20051;-79
2023/02/19 02:33:05;;;;;;;4.20;2.42;;;6.10;99.90;;;;;;5073108;28;20044;-79
2023/02/19 02:36:00;;;;;;;4.38;1.90;;;6.10;99.90;;;;;;5105053;28;20040;-79
2023/02/19 02:38:30;;;;;;;4.50;2.30;;;6.10;99.90;;;;;;5099685;28;20036;-79
2023/02/19 02:40:58;;;;;;;4.68;2.30;;;6.00;99.90;;;;;;5072735;28;20040;-79
2023/02/19 02:43:25;;;;;;;4.75;2.13;;;6.00;99.90;;;;;;5085307;28;20044;-79
2023/02/19 02:45:52;;;;;;;3.80;2.20;;;6.00;99.90;;;;;;5093112;28;20096;-78
2023/02/19 02:49:06;;;;;;;3.92;2.13;;;6.00;99.90;;;;;;5092732;28;20039;-79
2023/02/19 02:51:40;;;;;;;4.07;1.85;;;6.00;99.90;;;;;;5028574;28;20101;-79
2023/02/19 02:57:03;;;;;;;4.75;2.50;;;6.00;99.90;;;;;;5089376;28;20040;-79
2023/02/19 02:59:35;;;;;;;3.95;2.13;;;5.90;99.90;;;;;;5077740;28;20377;-78
2023/02/19 03:02:14;;;;;;;4.65;2.30;;;5.90;99.90;;;;;;5093028;28;20048;-79
2023/02/19 03:07:54;;;;;;;5.25;3.17;;;6.00;99.90;;;;;;5108948;28;20397;-78
2023/02/19 03:10:27;;;;;;;8.02;3.90;;;5.90;99.90;;;;;;5094232;28;20040;-78
2023/02/19 03:21:38;;;;;;;5.88;3.35;;;5.80;99.90;;;;;;5089219;28;20535;-78
2023/02/19 03:26:54;;;;;;;8.10;3.95;;;5.80;99.90;;;;;;5105251;28;20051;-78
2023/02/19 03:29:27;;;;;;;8.05;3.65;;;5.70;99.90;;;;;;5088586;28;20076;-78
2023/02/19 03:32:03;;;;;;;5.93;3.60;;;5.80;99.90;;;;;;5072292;28;20125;-78
2023/02/19 03:34:33;;;;;;;;;;;5.70;99.90;;;;;;5084385;28;20484;-79
2023/02/19 03:37:30;;;;;;;5.47;3.20;;;5.70;99.90;;;;;;5109467;28;19964;-79
2023/02/19 03:39:56;;;;;;;6.57;3.42;;;5.70;99.90;;;;;;5041221;28;20079;-78
2023/02/19 03:42:29;;;;;;;6.68;2.80;;;5.70;99.90;;;;;;5084931;28;20068;-78
2023/02/19 03:44:55;;;;;;;5.90;3.20;;;5.70;99.90;;;;;;5092129;28;20048;-78
2023/02/19 03:47:30;;;;;;;5.78;2.78;;;5.70;99.90;;;;;;5082364;28;20052;-78
2023/02/19 03:50:16;;;;;;;6.00;2.73;;;5.60;99.90;;;;;;5086728;28;20048;-78
2023/02/19 03:52:52;;;;;;;5.53;2.50;;;5.60;99.90;;;;;;5085749;28;20044;-78
2023/02/19 03:55:29;;;;;;;6.05;2.70;;;5.60;99.90;;;;;;5071814;28;20044;-78
2023/02/19 03:58:07;;;;;;;5.90;3.03;;;5.60;99.90;;;;;;5088576;28;20422;-78
2023/02/19 04:01:01;;;;;;;5.15;2.60;;;5.50;99.90;;;;;;5088942;28;20052;-78
2023/02/19 04:03:36;;;;;;;5.75;2.90;;;5.50;99.90;;;;;;5088664;28;20051;-78
2023/02/19 04:06:10;;;;;;;5.65;2.67;;;5.50;99.90;;;;;;5109825;28;20036;-78
2023/02/19 04:08:39;;;;;;;8.18;3.35;;;5.60;99.90;;;;;;5075996;28;20431;-78
2023/02/19 04:11:07;;;;;;;5.53;3.00;;;5.50;99.90;;;;;;5061265;28;20048;-79
2023/02/19 04:13:46;;;;;;;6.53;2.90;;;5.50;99.90;;;;;;5073194;28;20045;-78
2023/02/19 04:16:19;;;;;;;6.07;3.05;;;5.50;99.90;;;;;;5095718;28;20119;-78
2023/02/19 04:18:51;;;;;;;6.63;2.83;;;5.60;99.90;;;;;;5112536;28;20059;-78
2023/02/19 04:21:21;;;;;;;5.07;2.50;;;5.40;99.90;;;;;;5080742;28;20127;-78
2023/02/19 04:23:48;;;;;;;7.07;2.60;;;5.50;99.90;;;;;;5105647;28;20066;-78
2023/02/19 04:26:16;;;;;;;8.27;3.20;;;5.50;99.90;;;;;;5077569;28;20045;-78
2023/02/19 04:28:43;;;;;;;6.38;3.03;;;5.50;99.90;;;;;;5081580;28;20047;-78
2023/02/19 04:31:10;;;;;;;7.35;2.63;;;5.50;99.90;;;;;;5110884;28;20032;-79
2023/02/19 04:33:37;;;;;;;5.55;2.30;;;5.50;99.90;;;;;;5095332;28;20039;-78
2023/02/19 04:36:04;;;;;;;5.03;2.55;;;5.40;99.90;;;;;;5075836;28;20034;-78
2023/02/19 04:38:30;;;;;;;4.97;2.45;;;5.40;99.90;;;;;;5075105;28;20613;-78
2023/02/19 04:40:57;;;;;;;4.30;2.20;;;5.40;99.90;;;;;;5060237;28;20123;-78
2023/02/19 04:43:24;;;;;;;5.22;2.33;;;5.40;99.90;;;;;;5078598;28;20163;-78
2023/02/19 04:45:50;;;;;;;5.10;2.55;;;5.30;99.90;;;;;;5079068;28;20050;-78
2023/02/19 04:48:17;;;;;;;5.18;2.15;;;5.30;99.90;;;;;;5078766;28;20101;-78
2023/02/19 04:50:44;;;;;;;6.05;2.40;;;5.30;99.90;;;;;;5078459;28;20063;-78
2023/02/19 04:53:10;;;;;;;5.78;2.58;;;5.30;99.90;;;;;;5079261;28;20051;-78
2023/02/19 04:55:38;;;;;;;5.40;2.40;;;5.30;99.90;;;;;;5074985;28;20089;-78
2023/02/19 04:58:05;;;;;;;5.40;2.50;;;5.20;99.90;;;;;;5091737;28;20041;-78
2023/02/19 05:00:32;;;;;;;4.90;2.65;;;5.30;99.90;;;;;;5094929;28;20090;-78
2023/02/19 05:03:00;;;;;;;5.78;2.58;;;5.30;99.90;;;;;;5078659;28;20119;-78
2023/02/19 05:05:27;;;;;;;5.82;3.00;;;5.30;99.90;;;;;;5082995;28;20048;-78
2023/02/19 05:07:54;;;;;;;7.20;2.78;;;5.30;99.90;;;;;;5090136;28;20036;-78
2023/02/19 05:10:20;;;;;;;6.05;2.88;;;5.40;99.90;;;;;;5074168;28;20050;-78
2023/02/19 05:12:47;;;;;;;6.03;2.80;;;5.30;99.90;;;;;;5084471;28;20046;-78
2023/02/19 05:15:14;;;;;;;5.90;2.67;;;5.40;99.90;;;;;;5074015;28;20076;-78
2023/02/19 05:17:41;;;;;;;7.40;3.10;;;5.30;99.90;;;;;;5074795;28;20594;-78
2023/02/19 05:20:08;;;;;;;7.03;2.95;;;5.30;99.90;;;;;;5074828;28;20064;-78
2023/02/19 05:22:34;;;;;;;5.47;2.53;;;5.30;99.90;;;;;;5079707;28;20143;-78
2023/02/19 05:25:01;;;;;;;6.13;3.08;;;5.30;99.90;;;;;;5082220;28;20062;-78
2023/02/19 05:27:29;;;;;;;6.63;2.78;;;5.30;99.90;;;;;;5111233;28;20144;-78
2023/02/19 05:29:56;;;;;;;6.15;3.17;;;5.30;99.90;;;;;;5111090;28;20127;-79
2023/02/19 05:32:23;;;;;;;7.35;3.00;;;5.30;99.90;;;;;;5094046;28;20555;-78
2023/02/19 05:34:50;;;;;;;6.72;3.05;;;5.30;99.90;;;;;;5077339;28;20040;-78
2023/02/19 05:37:17;;;;;;;6.38;3.10;;;5.30;99.90;;;;;;5077915;28;20032;-79
2023/02/19 05:39:43;;;;;;;4.47;1.98;;;5.20;99.90;;;;;;5074334;28;20409;-78
2023/02/19 05:42:12;;;;;;;3.78;1.83;;;5.20;99.90;;;;;;5057678;28;20067;-78
2023/02/19 05:44:39;;;;;;;4.70;1.55;;;5.20;99.90;;;;;;5074458;28;20033;-78
2023/02/19 05:47:06;;;;;;;5.15;1.60;;;5.20;99.90;;;;;;5066374;28;20041;-78
2023/02/19 05:49:32;;;;;;;4.43;1.50;;;5.20;99.90;;;;;;5082363;28;20059;-78
2023/02/19 05:51:59;;;;;;;4.47;1.33;;;5.50;99.90;;;;;;5074011;28;20062;-78
2023/02/19 05:54:28;;;;;;;4.50;1.70;;;5.10;99.90;;;;;;5084755;28;20040;-78
2023/02/19 05:56:55;;;;;;;2.88;1.38;;;5.10;99.90;;;;;;5074164;28;20083;-78
2023/02/19 05:59:24;;;;;;;3.50;1.17;;;5.10;99.90;;;;;;5093969;28;20064;-78
2023/02/19 06:01:52;;;;;;;3.78;1.23;;;5.20;99.90;;;;;;5078008;28;20054;-78
2023/02/19 06:04:20;;;;;;;4.50;1.30;;;5.10;99.90;;;;;;5100776;28;20054;-78
2023/02/19 06:06:47;;;;;;;3.58;1.40;;;5.30;99.90;;;;;;5093941;28;20036;-78
2023/02/19 06:09:13;;;;;;;4.68;1.48;;;5.20;99.90;;;;;;5110336;28;20751;-78
2023/02/19 06:11:42;;;;;;;5.35;1.85;;;5.20;99.90;;;;;;5077039;28;20127;-79
2023/02/19 06:14:11;;;;;;;3.60;1.80;;;5.10;99.90;;;;;;5074369;28;20833;-79
2023/02/19 06:16:38;;;;;;;4.93;1.80;;;5.10;99.90;;;;;;5090281;28;20036;-78
2023/02/19 06:19:05;;;;;;;4.30;1.90;;;5.30;99.90;;;;;;5073459;28;20110;-78
2023/02/19 06:21:32;;;;;;;4.97;1.60;;;5.10;99.90;;;;;;5093635;28;20048;-79
2023/02/19 06:24:03;;;;;;;6.93;1.77;;;5.10;99.90;;;;;;5070654;28;20040;-78
2023/02/19 06:26:30;;;;;;;4.72;1.45;;;5.10;99.90;;;;;;5057453;28;20481;-79
2023/02/19 06:28:57;;;;;;;5.13;1.60;;;5.10;99.90;;;;;;5092580;28;20044;-78
2023/02/19 06:31:23;;;;;;;4.22;1.50;;;5.00;99.90;;;;;;5076511;28;20051;-78
2023/02/19 06:33:50;;;;;;;5.25;1.20;;;5.00;99.90;;;;;;5093478;28;20036;-78
2023/02/19 06:36:19;;;;;;;4.43;1.30;;;5.00;99.90;;;;;;5072775;28;20102;-78
2023/02/19 06:38:45;;;;;;;2.42;1.27;;;5.00;99.90;;;;;;5092146;28;20043;-79
2023/02/19 06:41:13;;;;;;;5.90;1.92;;;5.00;99.90;;;;;;5076291;28;20501;-79
2023/02/19 06:43:40;;;;;;;2.90;1.25;;;5.00;99.90;;;;;;5079221;28;20093;-79
2023/02/19 06:46:09;;;;;;;3.47;1.50;;;4.90;99.90;;;;;;5072405;28;20059;-78
2023/02/19 06:48:38;;;;;;;3.15;1.20;;;4.90;99.90;;;;;;5072126;28;20052;-79
2023/02/19 06:51:05;;;;;;;2.80;1.08;;;4.90;99.90;;;;;;5079983;28;20051;-79
2023/02/19 06:53:32;;;;;;;2.40;1.40;;;4.90;99.90;;;;;;5109362;28;20624;-79
2023/02/19 06:56:02;;;;;;;4.72;1.25;;;4.90;99.90;;;;;;5075847;28;20038;-78
2023/02/19 06:58:30;;;;;;;4.68;1.25;;;4.90;99.90;;;;;;5100161;28;20202;-79
2023/02/19 07:00:57;;;;;;;4.72;1.30;;;4.90;99.90;;;;;;5085168;28;20051;-79
2023/02/19 07:03:25;;;;;;;2.80;1.00;;;4.90;99.90;;;;;;5073204;28;20036;-79
2023/02/19 07:05:51;;;;;;;5.13;1.10;;;4.80;99.90;;;;;;5092975;28;20047;-78
2023/02/19 07:08:18;;;;;;;2.05;1.00;;;4.80;99.90;;;;;;5090327;28;20036;-78
2023/02/19 07:10:53;;;;;;;5.43;1.00;;;4.80;99.90;;;;;;5079200;28;20484;-78
2023/02/19 07:13:19;;;;;;;6.13;0.95;;;4.80;99.90;;;;;;5077061;28;20485;-79
2023/02/19 07:15:46;;;;;;;2.60;1.15;;;4.80;99.90;;;;;;5060326;28;20032;-79
2023/02/19 07:18:13;;;;;;;1.70;0.65;;;4.80;99.90;;;;;;5076441;28;20056;-78
2023/02/19 07:20:39;;;;;;;2.05;0.85;;;4.80;99.90;;;;;;5073021;28;20127;-78
2023/02/19 07:23:06;;;;;;;3.97;0.93;;;4.80;99.90;;;;;;5082719;28;20143;-79
2023/02/19 07:25:33;;;;;;;1.75;0.80;;;4.80;99.90;;;;;;5072454;28;20119;-78
2023/02/19 07:27:59;;;;;;;2.20;0.98;;;4.80;99.90;;;;;;5073876;28;20040;-79
2023/02/19 07:30:26;;;;;;;4.15;1.20;;;4.80;99.90;;;;;;5074859;28;21426;-79
2023/02/19 07:32:53;;;;;;;1.50;0.60;;;4.90;99.90;;;;;;5067886;28;20079;-79
2023/02/19 07:35:19;;;;;;;1.70;0.80;;;4.80;99.90;;;;;;5047935;28;20064;-78
2023/02/19 07:37:46;;;;;;;1.63;0.75;;;4.70;99.90;;;;;;5071939;28;20039;-79
2023/02/19 07:40:13;;;;;;;1.98;0.95;;;4.80;99.90;;;;;;5072076;28;20036;-79
2023/02/19 07:42:39;;;;;;;4.85;1.08;;;4.80;99.90;;;;;;5075564;28;20036;-78
2023/02/19 07:45:06;;;;;;;4.35;0.90;;;4.90;99.90;;;;;;5072468;28;20072;-79
2023/02/19 07:47:34;;;;;;;4.90;0.85;;;4.90;99.90;;;;;;5083431;28;20052;-78
2023/02/19 07:50:00;;;;;;;0.93;0.52;;;4.90;99.90;;;;;;5075281;28;20131;-79
2023/02/19 07:52:27;;;;;;;2.15;0.65;;;5.00;99.90;;;;;;5066483;28;20941;-78
2023/02/19 07:54:57;;;;;;;0.95;0.60;;;5.10;99.90;;;;;;5056517;28;20517;-78
2023/02/19 07:57:24;;;;;;;2.70;0.80;;;5.00;99.90;;;;;;5072180;28;20124;-79
2023/02/19 07:59:50;;;;;;;1.40;0.60;;;5.10;99.90;;;;;;5055451;28;20035;-79
2023/02/19 08:05:05;;;;;;;3.35;0.52;;;5.10;99.90;;;;;;5108462;28;20098;-79
2023/02/19 08:07:34;;;;;;;2.60;0.73;;;5.10;99.90;;;;;;5062312;28;20040;-79
2023/02/19 08:15:47;;;;;;;1.13;0.60;;;5.10;99.90;;;;;;5096262;28;20044;-78
2023/02/19 08:18:15;;;;;;;3.05;0.60;;;5.10;99.90;;;;;;5098030;28;20076;-78
2023/02/19 08:20:42;;;;;;;1.77;0.50;;;5.10;99.90;;;;;;5087961;28;20062;-78
2023/02/19 08:23:10;;;;;;;0.43;0.38;;;5.10;99.90;;;;;;5079352;28;20577;-78
2023/02/19 08:25:38;;;;;;;2.00;0.63;;;5.10;99.90;;;;;;5062832;28;20094;-79
2023/02/19 08:28:06;;;;;;;1.55;0.30;;;5.10;99.90;;;;;;5063345;28;20037;-78
2023/02/19 08:30:36;;;;;;;1.55;0.68;;;5.20;99.90;;;;;;5077979;28;20033;-80
2023/02/19 08:33:05;;;;;;;1.27;0.47;;;5.10;99.90;;;;;;5070455;28;20032;-79
2023/02/19 08:35:36;;;;;;;2.72;0.77;;;5.10;99.90;;;;;;5074765;28;20024;-79
2023/02/19 08:38:04;;;;;;;3.25;0.70;;;5.10;99.90;;;;;;5076297;28;20082;-79
2023/02/19 08:40:32;;;;;;;0.80;0.35;;;5.10;99.90;;;;;;5071862;28;20132;-77
2023/02/19 08:43:04;;;;;;;2.25;0.60;;;5.10;99.90;;;;;;5071212;28;20043;-77
2023/02/19 08:45:31;;;;;;;1.13;0.70;;;5.10;99.90;;;;;;5071485;28;20128;-77
2023/02/19 08:47:58;;;;;;;2.08;0.57;;;5.10;99.90;;;;;;5054842;28;20048;-77
2023/02/19 08:50:26;;;;;;;0.80;0.45;;;5.10;99.90;;;;;;5086004;28;20119;-77
2023/02/19 08:52:53;;;;;;;1.60;0.40;;;5.20;99.90;;;;;;5107742;28;20141;-77
2023/02/19 08:55:19;;;;;;;1.25;0.60;;;5.20;99.90;;;;;;5082699;28;20074;-77
2023/02/19 08:57:46;;;;;;;4.50;0.68;;;5.40;99.90;;;;;;5093782;28;20068;-77
2023/02/19 09:00:13;;;;;;;1.30;0.32;;;5.40;99.90;;;;;;5075299;28;20071;-77
2023/02/19 09:02:40;;;;;;;1.25;0.57;;;5.40;99.90;;;;;;5091781;28;20040;-77
2023/02/19 09:05:07;;;;;;;2.85;0.70;;;5.50;99.90;;;;;;5094778;28;20047;-77
2023/02/19 09:07:33;;;;;;;3.75;0.77;;;5.60;99.90;;;;;;5095069;28;20059;-77
2023/02/19 09:10:00;;;;;;;3.28;0.70;;;5.60;99.90;;;;;;5078705;28;20043;-77
2023/02/19 09:12:27;;;;;;;0.70;0.30;;;5.70;99.90;;;;;;5078342;28;20055;-77
2023/02/19 09:14:54;;;;;;;0.75;0.30;;;5.80;99.90;;;;;;5110933;28;20487;-77
2023/02/19 09:17:21;;;;;;;4.38;0.80;;;5.80;99.90;;;;;;5060835;28;20485;-77
2023/02/19 09:19:47;;;;;;;4.28;0.65;;;5.90;99.90;;;;;;5070931;28;20060;-78
2023/02/19 09:22:14;;;;;;;1.83;0.47;;;6.20;99.90;;;;;;5065432;28;20113;-78
2023/02/19 09:24:42;;;;;;;1.30;0.35;;;6.00;99.90;;;;;;5074480;28;20037;-77
2023/02/19 09:27:14;;;;;;;3.10;0.82;;;6.10;99.90;;;;;;5051341;28;20098;-77
2023/02/19 09:29:41;;;;;;;4.20;0.73;;;6.20;99.90;;;;;;5090928;28;20420;-77
2023/02/19 09:32:08;;;;;;;0.80;0.70;;;6.30;99.90;;;;;;5074242;28;20275;-77
2023/02/19 09:34:34;;;;;;;3.10;1.02;;;6.40;99.90;;;;;;5074234;28;20036;-77
2023/02/19 09:37:01;;;;;;;2.80;0.90;;;6.40;99.90;;;;;;5079273;28;20803;-77
2023/02/19 09:39:28;;;;;;;3.80;0.90;;;6.40;99.90;;;;;;5071857;28;20036;-77
2023/02/19 09:42:03;;;;;;;3.42;1.23;;;6.40;99.90;;;;;;5060598;28;20519;-77
2023/02/19 09:44:34;;;;;;;2.90;1.30;;;6.50;99.90;;;;;;5090814;28;20052;-77
2023/02/19 09:47:06;;;;;;;3.85;1.67;;;6.60;99.90;;;;;;5090758;28;20472;-77
2023/02/19 09:49:36;;;;;;;6.55;2.15;;;6.80;99.90;;;;;;5079693;28;20027;-77
2023/02/19 09:52:27;;;;;;;7.80;2.08;;;6.90;99.90;;;;;;5088142;28;20033;-77
2023/02/19 09:54:58;;;;;;;4.43;1.83;;;7.00;99.90;;;;;;5092304;28;20048;-77
2023/02/19 09:57:26;;;;;;;6.10;1.80;;;7.00;99.90;;;;;;5077742;28;20044;-77
2023/02/19 10:00:05;;;;;;;6.75;1.88;;;6.80;99.90;;;;;;5073613;28;20413;-77
2023/02/19 10:02:32;;;;;;;2.97;1.30;;;6.70;99.90;;;;;;5073881;28;20036;-77
2023/02/19 10:05:00;;;;;;;2.55;1.10;;;6.60;99.90;;;;;;5073947;28;20101;-77
2023/02/19 10:07:38;;;;;;;7.90;1.13;;;6.50;99.90;;;;;;5058609;28;20177;-77
2023/02/19 10:10:13;;;;;;;6.22;1.42;;;6.40;99.90;;;;;;5073867;28;20087;-77
2023/02/19 10:12:46;;;;;;;2.55;0.88;;;6.40;99.90;;;;;;5076339;28;20048;-77
2023/02/19 10:15:27;;;;;;;1.73;0.57;;;6.50;99.90;;;;;;5094225;28;20044;-77
2023/02/19 10:17:54;;;;;;;4.07;0.45;;;6.60;99.90;;;;;;5110160;28;20048;-78
2023/02/19 10:20:26;;;;;;;8.23;0.45;;;6.70;99.90;;;;;;5076973;28;20141;-77
2023/02/19 10:23:04;;;;;;;3.60;0.45;;;6.70;99.90;;;;;;5094258;28;20042;-77
2023/02/19 10:25:32;;;;;;;3.92;0.85;;;6.70;99.90;;;;;;5110263;28;20036;-77
2023/02/19 10:28:00;;;;;;;1.17;0.50;;;6.70;99.90;;;;;;5085240;28;20044;-77
2023/02/19 10:30:30;;;;;;;3.53;0.90;;;6.80;99.90;;;;;;5106220;28;20043;-77
2023/02/19 10:33:01;;;;;;;3.85;0.65;;;6.90;99.90;;;;;;5091133;28;20741;-78
2023/02/19 10:35:30;;;;;;;1.38;0.70;;;7.10;99.90;;;;;;5095829;28;20504;-77
2023/02/19 10:37:57;;;;;;;3.05;0.77;;;7.30;99.90;;;;;;5092348;28;20036;-77
2023/02/19 10:40:28;;;;;;;3.50;1.00;;;7.40;99.90;;;;;;5078624;28;20069;-77
2023/02/19 10:43:04;;;;;;;4.53;0.90;;;7.40;99.90;;;;;;5083392;28;20068;-77
2023/02/19 10:45:39;;;;;;;4.05;1.40;;;7.30;99.90;;;;;;5074409;28;20071;-77
2023/02/19 10:48:20;;;;;;;5.00;0.88;;;7.20;99.90;;;;;;5073072;28;20058;-77
2023/02/19 10:50:56;;;;;;;4.15;1.10;;;7.10;99.90;;;;;;5058362;28;20055;-77
2023/02/19 10:53:38;;;;;;;2.45;0.88;;;7.00;99.90;;;;;;5072498;28;20495;-77
2023/02/19 10:56:23;;;;;;;3.53;1.00;;;7.00;99.90;;;;;;5072655;28;20045;-77
2023/02/19 10:58:50;;;;;;;2.78;0.90;;;7.10;99.90;;;;;;5072635;28;20043;-77
2023/02/19 11:01:25;;;;;;;2.90;1.00;;;7.30;99.90;;;;;;5073395;28;20043;-77
2023/02/19 11:04:16;;;;;;;7.15;0.82;;;7.30;99.90;;;;;;5082895;28;20071;-77
2023/02/19 11:06:44;;;;;;;4.22;0.98;;;7.40;99.90;;;;;;5079164;28;20040;-77
2023/02/19 11:09:33;;;;;;;0.82;0.40;;;7.40;99.90;;;;;;5084937;28;20047;-77
2023/02/19 11:12:03;;;;;;;2.00;0.80;;;7.30;99.90;;;;;;5075724;28;20040;-77
2023/02/19 11:14:32;;;;;;;4.53;0.80;;;7.30;99.90;;;;;;5072346;28;20098;-77
2023/02/19 11:17:02;;;;;;;2.03;0.80;;;7.20;99.90;;;;;;5083148;28;20052;-77
2023/02/19 11:19:35;;;;;;;2.17;0.90;;;7.20;99.90;;;;;;5062941;28;20053;-77
2023/02/19 11:22:26;;;;;;;1.85;0.70;;;7.20;99.90;;;;;;5056774;28;20124;-77
2023/02/19 11:24:53;;;;;;;3.55;0.65;;;7.00;99.90;;;;;;5083466;28;20040;-77
2023/02/19 11:27:22;;;;;;;2.25;0.65;;;7.00;99.90;;;;;;5031771;28;20034;-77
2023/02/19 11:29:49;;;;;;;2.75;0.80;;;7.20;99.90;;;;;;5056510;28;20052;-77
2023/02/19 11:32:19;;;;;;;5.07;0.95;;;7.30;99.90;;;;;;5048631;28;20414;-77
2023/02/19 11:34:46;;;;;;;4.78;0.95;;;7.50;99.90;;;;;;5078049;28;20120;-77
2023/02/19 11:37:19;;;;;;;1.45;0.65;;;7.60;99.90;;;;;;5066566;28;20038;-77
2023/02/19 11:39:50;;;;;;;2.40;0.90;;;7.70;99.90;;;;;;5049344;28;20514;-77
2023/02/19 11:42:29;;;;;;;1.95;0.60;;;7.60;99.90;;;;;;5032197;28;20478;-77
2023/02/19 11:45:08;;;;;;;3.80;0.68;;;7.60;99.90;;;;;;5067942;28;20478;-77
2023/02/19 11:47:55;;;;;;;3.05;0.90;;;7.60;99.90;;;;;;5062903;28;20041;-77
2023/02/19 11:50:30;;;;;;;1.70;0.60;;;7.60;99.90;;;;;;5082357;28;20047;-77
2023/02/19 11:53:19;;;;;;;1.73;0.73;;;7.50;99.90;;;;;;5067046;28;20083;-77
2023/02/19 11:56:32;;;;;;;2.13;0.70;;;7.50;99.90;;;;;;5048662;28;20080;-77
2023/02/19 11:59:35;;;;;;;3.97;1.00;;;7.50;99.90;;;;;;5006329;28;20034;-77
2023/02/19 12:02:11;;;;;;;4.60;1.20;;;7.50;99.90;;;;;;5027397;28;20052;-77
2023/02/19 12:04:48;;;;;;;3.53;0.75;;;7.50;99.90;;;;;;5066585;28;20554;-77
2023/02/19 12:07:49;;;;;;;1.77;0.80;;;7.50;99.90;;;;;;5084807;28;20094;-77
2023/02/19 12:10:24;;;;;;;2.75;1.00;;;7.40;99.90;;;;;;5060775;28;20478;-77
2023/02/19 12:13:10;;;;;;;;;;;7.40;99.90;;;;;;5085170;28;20052;-77
2023/02/19 12:15:59;;;;;;;2.72;0.90;;;7.40;99.90;;;;;;5085219;28;19917;-77
2023/02/19 12:18:52;;;;;;;2.33;0.68;;;7.40;99.90;;;;;;5069665;28;20091;-77
2023/02/19 12:21:50;;;;;;;3.88;0.60;;;7.40;99.90;;;;;;5091783;28;20084;-77
2023/02/19 12:24:30;;;;;;;1.55;0.73;;;7.40;99.90;;;;;;5078575;28;20382;-77
2023/02/19 12:27:19;;;;;;;1.17;0.63;;;7.50;99.90;;;;;;5074740;28;20556;-77
2023/02/19 12:30:07;;;;;;;2.90;0.70;;;7.60;99.90;;;;;;5092883;28;20047;-77
2023/02/19 12:32:52;;;;;;;3.08;0.68;;;7.70;99.90;;;;;;5096287;28;20049;-77
2023/02/19 12:36:00;;;;;;;1.30;0.60;;;7.80;99.90;;;;;;5089083;28;20460;-77
2023/02/19 12:38:35;;;;;;;1.48;0.70;;;7.80;99.90;;;;;;4991956;28;20039;-77
2023/02/19 12:41:26;;;;;;;3.45;0.82;;;7.80;99.90;;;;;;5061634;28;20466;-77
2023/02/19 12:43:59;;;;;;;0.95;0.47;;;7.80;99.90;;;;;;5092093;28;20044;-77
2023/02/19 12:46:37;;;;;;;2.80;0.70;;;7.80;99.90;;;;;;5074971;28;20408;-77
2023/02/19 12:49:32;;;;;;;2.03;0.82;;;7.80;99.90;;;;;;5075609;28;20049;-77
2023/02/19 12:52:21;;;;;;;5.13;0.65;;;7.90;99.90;;;;;;5076872;28;20048;-77
2023/02/19 12:54:52;;;;;;;2.05;0.65;;;7.80;99.90;;;;;;5111107;28;20472;-77
2023/02/19 12:57:35;;;;;;;1.27;0.60;;;7.80;99.90;;;;;;5094483;28;20043;-77
2023/02/19 13:00:24;;;;;;;3.58;1.17;;;7.90;99.90;;;;;;5109968;28;20036;-77
2023/02/19 13:03:03;;;;;;;1.98;0.73;;;7.90;99.90;;;;;;5075286;28;20040;-77
2023/02/19 13:05:36;;;;;;;5.57;1.13;;;8.00;99.90;;;;;;5104822;28;20131;-77
2023/02/19 13:08:13;;;;;;;2.40;0.70;;;8.00;99.90;;;;;;5106928;28;20458;-77
2023/02/19 13:10:49;;;;;;;36.38;2.47;;;8.00;99.90;;;;;;5074597;28;20405;-77
2023/02/19 13:13:27;;;;;;;4.10;1.20;;;8.00;99.90;;;;;;5080502;28;20038;-77
2023/02/19 13:16:02;;;;;;;1.92;0.80;;;7.90;99.90;;;;;;5111524;28;20125;-77
2023/02/19 13:18:38;;;;;;;6.93;0.82;;;7.90;99.90;;;;;;5107382;28;20409;-77
2023/02/19 13:21:05;;;;;;;4.05;0.80;;;7.90;99.90;;;;;;5074862;28;20044;-77
2023/02/19 13:26:36;;;;;;;3.60;0.90;;;8.00;99.90;;;;;;5106366;28;20500;-77
2023/02/19 13:29:24;;;;;;;3.03;0.65;;;8.00;99.90;;;;;;5082707;28;20052;-77
2023/02/19 13:31:58;;;;;;;2.72;0.70;;;8.00;99.90;;;;;;5074378;28;20063;-77
2023/02/19 13:34:58;;;;;;;3.90;1.00;;;7.90;99.90;;;;;;5073993;28;20404;-77
2023/02/19 13:37:26;;;;;;;3.92;0.70;;;7.90;99.90;;;;;;5091982;28;20609;-77
2023/02/19 13:40:03;;;;;;;2.95;0.60;;;7.80;99.90;;;;;;5089483;28;20038;-77
2023/02/19 13:42:35;;;;;;;2.47;0.75;;;7.80;99.90;;;;;;5074987;28;20469;-77
2023/02/19 13:45:04;;;;;;;1.77;0.70;;;7.80;99.90;;;;;;5094459;28;20032;-77
2023/02/19 13:48:12;;;;;;;8.30;1.35;;;7.80;99.90;;;;;;5094219;28;20044;-77
2023/02/19 13:50:39;;;;;;;3.22;0.65;;;7.80;99.90;;;;;;5038466;28;20059;-78
2023/02/19 13:53:52;;;;;;;1.50;0.40;;;7.80;99.90;;;;;;5079654;28;20072;-77